createdAt,value
2018-11-27T00:02:25.913Z,12.35
2018-11-27T00:04:53.952Z,12.70
2018-11-27T00:07:21.992Z,11.90
2018-11-27T00:09:50.038Z,11.90
2018-11-27T00:12:18.074Z,12.80
2018-11-27T00:14:46.103Z,12.47
2018-11-27T00:17:14.142Z,11.95
2018-11-27T00:19:42.186Z,13.28
2018-11-27T00:22:10.226Z,11.90
2018-11-27T00:24:38.246Z,12.35
2018-11-27T00:27:06.314Z,12.85
2018-11-27T00:29:34.351Z,13.08
2018-11-27T00:32:02.411Z,12.05
2018-11-27T00:34:30.451Z,12.70
2018-11-27T00:36:58.534Z,12.58
2018-11-27T00:39:26.550Z,12.18
2018-11-27T00:41:54.575Z,11.97
2018-11-27T00:44:22.607Z,12.23
2018-11-27T00:46:50.636Z,12.03
2018-11-27T00:49:18.687Z,11.53
2018-11-27T00:51:46.706Z,12.33
2018-11-27T00:54:14.742Z,11.60
2018-11-27T00:56:42.770Z,12.10
2018-11-27T00:59:10.792Z,11.88
2018-11-27T01:01:39.161Z,11.53
2018-11-27T01:04:07.214Z,11.43
2018-11-27T01:06:35.234Z,12.35
2018-11-27T01:09:03.806Z,11.63
2018-11-27T01:11:31.849Z,11.53
2018-11-27T01:13:59.886Z,11.50
2018-11-27T01:16:27.922Z,10.45
2018-11-27T01:18:55.943Z,10.65
2018-11-27T01:21:23.963Z,11.35
2018-11-27T01:23:51.985Z,11.97
2018-11-27T01:26:20.019Z,11.30
2018-11-27T01:28:48.075Z,12.10
2018-11-27T01:31:16.123Z,11.28
2018-11-27T01:33:44.162Z,12.30
2018-11-27T01:36:12.190Z,12.30
2018-11-27T01:38:40.238Z,12.40
2018-11-27T01:41:08.292Z,12.20
2018-11-27T01:43:36.363Z,12.23
2018-11-27T01:46:04.786Z,12.98
2018-11-27T01:48:32.835Z,12.10
2018-11-27T01:51:00.875Z,14.13
2018-11-27T01:53:28.898Z,12.78
2018-11-27T01:55:56.947Z,13.70
2018-11-27T01:58:24.987Z,14.03
2018-11-27T02:00:53.019Z,15.70
2018-11-27T02:03:21.063Z,16.83
2018-11-27T02:05:49.111Z,15.98
2018-11-27T02:08:17.158Z,17.32
2018-11-27T02:10:45.201Z,19.57
2018-11-27T02:13:13.247Z,18.45
2018-11-27T02:15:41.280Z,18.90
2018-11-27T02:18:09.346Z,19.67
2018-11-27T02:20:37.370Z,19.13
2018-11-27T02:23:05.784Z,19.25
2018-11-27T02:25:34.843Z,18.92
2018-11-27T02:28:02.878Z,19.40
2018-11-27T02:30:30.931Z,19.70
2018-11-27T02:32:58.962Z,19.90
2018-11-27T02:35:27.124Z,19.45
2018-11-27T02:37:57.411Z,19.40
2018-11-27T02:40:25.456Z,18.87
2018-11-27T02:42:53.495Z,18.37
2018-11-27T02:45:22.552Z,19.57
2018-11-27T02:47:51.486Z,19.17
2018-11-27T02:50:20.563Z,19.25
2018-11-27T02:52:48.617Z,18.80
2018-11-27T02:55:17.727Z,17.50
2018-11-27T02:57:45.782Z,18.50
2018-11-27T03:00:14.808Z,17.77
2018-11-27T03:02:42.881Z,17.17
2018-11-27T03:05:13.198Z,17.47
2018-11-27T03:07:41.255Z,16.90
2018-11-27T03:10:11.672Z,16.97
2018-11-27T03:12:39.719Z,16.57
2018-11-27T03:15:10.727Z,17.13
2018-11-27T03:17:38.843Z,16.77
2018-11-27T03:20:08.588Z,16.90
2018-11-27T03:22:36.639Z,16.12
2018-11-27T03:25:06.478Z,16.20
2018-11-27T03:27:34.533Z,16.62
2018-11-27T03:30:02.583Z,15.80
2018-11-27T03:32:30.642Z,15.23
2018-11-27T03:34:58.664Z,15.57
2018-11-27T03:37:26.727Z,15.53
2018-11-27T03:39:54.742Z,15.00
2018-11-27T03:42:22.754Z,15.65
2018-11-27T03:44:50.787Z,14.35
2018-11-27T03:47:18.803Z,15.28
2018-11-27T03:49:46.839Z,14.68
2018-11-27T03:52:14.879Z,14.95
2018-11-27T03:54:42.900Z,15.00
2018-11-27T03:57:10.939Z,14.80
2018-11-27T03:59:39.046Z,14.43
2018-11-27T04:02:07.083Z,14.35
2018-11-27T04:04:35.124Z,14.85
2018-11-27T04:07:03.295Z,13.20
2018-11-27T04:09:31.310Z,13.70
2018-11-27T04:11:59.347Z,13.85
2018-11-27T04:14:27.380Z,14.28
2018-11-27T04:16:55.420Z,14.13
2018-11-27T04:19:23.434Z,13.03
2018-11-27T04:21:51.475Z,13.18
2018-11-27T04:24:19.553Z,14.05
2018-11-27T04:26:47.596Z,13.30
2018-11-27T04:29:15.695Z,13.45
2018-11-27T04:31:43.748Z,13.13
2018-11-27T04:34:11.775Z,13.22
2018-11-27T04:36:39.827Z,12.90
2018-11-27T04:39:08.829Z,13.35
2018-11-27T04:41:36.918Z,12.95
2018-11-27T04:44:05.243Z,13.05
2018-11-27T04:46:33.279Z,13.70
2018-11-27T04:49:01.319Z,14.00
2018-11-27T04:51:29.357Z,14.15
2018-11-27T04:53:57.980Z,13.40
2018-11-27T04:56:26.069Z,13.35
2018-11-27T04:58:54.108Z,13.30
2018-11-27T05:01:22.164Z,13.45
2018-11-27T05:03:50.178Z,12.60
2018-11-27T05:06:18.239Z,13.22
2018-11-27T05:08:46.270Z,13.93
2018-11-27T05:11:14.307Z,12.70
2018-11-27T05:13:42.358Z,13.53
2018-11-27T05:16:10.397Z,13.78
2018-11-27T05:18:38.444Z,13.90
2018-11-27T05:21:06.626Z,13.50
2018-11-27T05:23:34.664Z,13.48
2018-11-27T05:26:02.730Z,13.45
2018-11-27T05:28:30.802Z,12.70
2018-11-27T05:30:58.850Z,12.80
2018-11-27T05:33:26.878Z,13.00
2018-11-27T05:35:54.919Z,13.15
2018-11-27T05:38:22.959Z,16.60
2018-11-27T05:40:51.319Z,14.25
2018-11-27T05:43:19.363Z,13.62
2018-11-27T05:45:47.387Z,14.18
2018-11-27T05:48:15.427Z,13.90
2018-11-27T05:50:43.473Z,14.78
2018-11-27T05:53:11.514Z,13.37
2018-11-27T05:55:39.613Z,13.70
2018-11-27T05:58:07.619Z,13.80
2018-11-27T06:00:35.656Z,14.38
2018-11-27T06:03:03.674Z,13.60
2018-11-27T06:05:31.718Z,13.85
2018-11-27T06:07:59.754Z,14.20
2018-11-27T06:10:27.786Z,13.83
2018-11-27T06:12:55.846Z,14.47
2018-11-27T06:15:24.534Z,15.58
2018-11-27T06:17:57.902Z,14.38
2018-11-27T06:20:25.950Z,14.87
2018-11-27T06:22:54.514Z,15.18
2018-11-27T06:25:23.612Z,16.10
2018-11-27T06:27:53.106Z,14.98
2018-11-27T06:30:22.334Z,15.20
2018-11-27T06:32:50.362Z,15.23
2018-11-27T06:35:19.798Z,15.30
2018-11-27T06:37:47.869Z,14.85
2018-11-27T06:40:20.026Z,14.90
2018-11-27T06:42:48.054Z,14.30
2018-11-27T06:45:17.220Z,14.95
2018-11-27T06:47:46.071Z,14.30
2018-11-27T06:50:15.323Z,14.78
2018-11-27T06:52:43.347Z,15.15
2018-11-27T06:55:12.547Z,16.67
2018-11-27T06:57:40.607Z,15.80
2018-11-27T07:00:19.471Z,15.10
2018-11-27T07:02:47.516Z,15.10
2018-11-27T07:05:23.015Z,15.98
2018-11-27T07:07:51.051Z,15.15
2018-11-27T07:10:21.251Z,16.25
2018-11-27T07:12:50.362Z,16.40
2018-11-27T07:15:20.686Z,16.93
2018-11-27T07:17:48.704Z,15.88
2018-11-27T07:20:16.767Z,15.78
2018-11-27T07:22:44.798Z,16.83
2018-11-27T07:25:13.898Z,15.20
2018-11-27T07:27:44.384Z,15.30
2018-11-27T07:30:13.908Z,16.55
2018-11-27T07:32:41.938Z,17.20
2018-11-27T07:35:11.250Z,16.42
2018-11-27T07:37:39.351Z,16.77
2018-11-27T07:40:15.532Z,16.25
2018-11-27T07:42:43.621Z,16.80
2018-11-27T07:45:14.505Z,16.60
2018-11-27T07:47:42.592Z,17.00
2018-11-27T07:50:11.374Z,15.38
2018-11-27T07:52:39.450Z,16.42
2018-11-27T07:55:09.241Z,16.73
2018-11-27T07:57:37.418Z,17.32
2018-11-27T08:00:09.173Z,16.30
2018-11-27T08:02:37.223Z,17.73
2018-11-27T08:05:07.581Z,16.35
2018-11-27T08:07:35.618Z,17.02
2018-11-27T08:10:04.107Z,21.77
2018-11-27T08:12:32.182Z,15.63
2018-11-27T08:15:00.227Z,15.30
2018-11-27T08:17:28.247Z,15.43
2018-11-27T08:19:56.274Z,15.10
2018-11-27T08:22:24.300Z,16.20
2018-11-27T08:24:52.378Z,15.65
2018-11-27T08:27:20.436Z,15.80
2018-11-27T08:29:48.508Z,14.60
2018-11-27T08:32:16.539Z,15.08
2018-11-27T08:34:44.899Z,15.30
2018-11-27T08:37:12.975Z,15.00
2018-11-27T08:39:41.011Z,14.75
2018-11-27T08:42:09.072Z,15.65
2018-11-27T08:44:37.107Z,14.55
2018-11-27T08:47:05.627Z,14.90
2018-11-27T08:49:33.687Z,15.63
2018-11-27T08:52:01.723Z,16.37
2018-11-27T08:54:29.793Z,15.63
2018-11-27T08:56:57.838Z,14.20
2018-11-27T08:59:25.870Z,13.95
2018-11-27T09:01:53.982Z,14.40
2018-11-27T09:04:22.026Z,15.27
2018-11-27T09:06:50.082Z,14.05
2018-11-27T09:09:18.152Z,14.10
2018-11-27T09:11:46.174Z,13.65
2018-11-27T09:14:14.227Z,13.15
2018-11-27T09:16:42.314Z,13.72
2018-11-27T09:19:10.366Z,13.60
2018-11-27T09:21:38.468Z,13.68
2018-11-27T09:24:06.504Z,13.75
2018-11-27T09:26:34.526Z,14.10
2018-11-27T09:29:02.578Z,14.83
2018-11-27T09:31:30.599Z,13.90
2018-11-27T09:33:58.642Z,13.50
2018-11-27T09:36:26.676Z,13.30
2018-11-27T09:38:54.748Z,13.00
2018-11-27T09:41:22.775Z,13.97
2018-11-27T09:43:50.818Z,12.73
2018-11-27T09:46:18.837Z,12.57
2018-11-27T09:48:46.891Z,13.20
2018-11-27T09:51:14.917Z,12.70
2018-11-27T09:53:42.979Z,12.70
2018-11-27T09:56:11.033Z,12.67
2018-11-27T09:58:39.094Z,12.20
2018-11-27T10:01:07.218Z,12.58
2018-11-27T10:03:35.263Z,11.45
2018-11-27T10:06:03.278Z,12.10
2018-11-27T10:08:31.315Z,11.30
2018-11-27T10:10:59.346Z,11.70
2018-11-27T10:13:27.399Z,12.15
2018-11-27T10:15:55.423Z,11.70
2018-11-27T10:18:23.463Z,11.97
2018-11-27T10:20:51.498Z,11.40
2018-11-27T10:23:19.551Z,10.50
2018-11-27T10:25:47.568Z,10.50
2018-11-27T10:28:15.642Z,10.20
2018-11-27T10:30:43.653Z,11.68
2018-11-27T10:33:12.246Z,10.78
2018-11-27T10:35:46.055Z,10.08
2018-11-27T10:38:14.082Z,10.50
2018-11-27T10:40:42.125Z,12.58
2018-11-27T10:43:10.170Z,10.28
2018-11-27T10:45:38.198Z,11.03
2018-11-27T10:48:06.212Z,9.85
2018-11-27T10:50:34.263Z,10.00
2018-11-27T10:53:02.299Z,10.25
2018-11-27T10:55:30.332Z,10.18
2018-11-27T10:57:58.352Z,9.75
2018-11-27T11:00:32.414Z,10.40
2018-11-27T11:04:04.354Z,9.60
2018-11-27T11:06:32.905Z,9.90
2018-11-27T11:09:01.612Z,9.70
2018-11-27T11:11:29.654Z,9.13
2018-11-27T11:13:57.699Z,9.03
2018-11-27T11:16:25.785Z,9.18
2018-11-27T11:18:53.832Z,9.30
2018-11-27T11:21:21.847Z,8.28
2018-11-27T11:23:49.886Z,11.93
2018-11-27T11:26:17.919Z,9.30
2018-11-27T11:28:45.958Z,9.08
2018-11-27T11:31:14.039Z,9.70
2018-11-27T11:36:16.587Z,8.68
2018-11-27T11:38:44.685Z,8.90
2018-11-27T11:41:12.727Z,9.03
2018-11-27T11:43:40.760Z,8.90
2018-11-27T11:46:08.789Z,8.80
2018-11-27T11:48:36.827Z,8.95
2018-11-27T11:51:05.359Z,8.80
2018-11-27T11:53:33.391Z,8.23
2018-11-27T11:56:01.479Z,9.05
2018-11-27T11:58:29.617Z,9.20
2018-11-27T12:00:57.928Z,8.40
2018-11-27T12:03:26.007Z,8.68
2018-11-27T12:05:54.028Z,8.70
2018-11-27T12:08:22.080Z,9.78
2018-11-27T12:10:50.126Z,9.60
2018-11-27T12:13:18.166Z,9.95
2018-11-27T12:15:46.217Z,9.27
2018-11-27T12:18:14.299Z,8.30
2018-11-27T12:20:42.321Z,9.40
2018-11-27T12:23:11.315Z,9.48
2018-11-27T12:25:40.103Z,9.60
2018-11-27T12:28:14.353Z,9.20
2018-11-27T12:30:37.271Z,8.90
2018-11-27T12:33:05.847Z,9.13
2018-11-27T12:35:34.058Z,8.08
2018-11-27T12:38:02.134Z,8.65
2018-11-27T12:40:30.158Z,8.60
2018-11-27T12:42:58.419Z,8.65
2018-11-27T12:45:29.248Z,9.70
2018-11-27T12:47:58.250Z,7.85
2018-11-27T12:50:30.323Z,7.90
2018-11-27T12:52:58.339Z,7.90
2018-11-27T12:55:26.367Z,8.10
2018-11-27T12:57:54.401Z,8.33
2018-11-27T13:00:23.669Z,8.58
2018-11-27T13:02:51.745Z,7.85
2018-11-27T13:05:22.140Z,7.95
2018-11-27T13:07:51.133Z,8.25
2018-11-27T13:10:19.174Z,7.90
2018-11-27T13:12:47.218Z,8.38
2018-11-27T13:15:18.418Z,7.10
2018-11-27T13:17:47.290Z,6.90
2018-11-27T13:20:16.286Z,5.42
2018-11-27T13:22:44.334Z,6.00
2018-11-27T13:25:16.520Z,5.90
2018-11-27T13:27:44.560Z,6.40
2018-11-27T13:30:15.028Z,7.00
2018-11-27T13:32:43.694Z,5.97
2018-11-27T13:35:12.618Z,7.17
2018-11-27T13:37:40.866Z,6.20
2018-11-27T13:40:10.260Z,5.35
2018-11-27T13:42:38.338Z,3.60
2018-11-27T13:45:12.169Z,4.20
2018-11-27T13:47:40.836Z,3.05
2018-11-27T13:50:12.895Z,4.40
2018-11-27T13:52:40.978Z,5.58
2018-11-27T13:55:20.108Z,4.95
2018-11-27T13:57:48.171Z,4.40
2018-11-27T14:00:17.965Z,3.35
2018-11-27T14:02:49.636Z,3.50
2018-11-27T14:05:19.660Z,4.08
2018-11-27T14:07:47.762Z,5.00
2018-11-27T14:10:15.879Z,4.20
2018-11-27T14:12:43.920Z,3.20
2018-11-27T14:15:14.025Z,2.80
2018-11-27T14:17:42.065Z,3.10
2018-11-27T14:20:10.072Z,3.65
2018-11-27T14:22:38.104Z,3.30
2018-11-27T14:25:07.619Z,3.90
2018-11-27T14:27:35.678Z,3.95
2018-11-27T14:30:07.522Z,4.10
2018-11-27T14:32:35.591Z,4.65
2018-11-27T14:35:03.628Z,5.00
2018-11-27T14:37:31.679Z,4.67
2018-11-27T14:39:59.711Z,4.20
2018-11-27T14:42:27.763Z,6.10
2018-11-27T14:44:55.792Z,4.40
2018-11-27T14:47:23.857Z,4.40
2018-11-27T14:49:51.894Z,4.70
2018-11-27T14:52:19.946Z,5.80
2018-11-27T14:54:47.980Z,5.40
2018-11-27T14:57:16.026Z,9.68
2018-11-27T14:59:44.059Z,10.67
2018-11-27T15:02:12.131Z,13.00
2018-11-27T15:04:40.170Z,12.60
2018-11-27T15:07:08.267Z,14.70
2018-11-27T15:09:36.311Z,14.17
2018-11-27T15:12:04.683Z,13.93
2018-11-27T15:14:32.739Z,13.35
2018-11-27T15:17:00.772Z,14.28
2018-11-27T15:19:29.532Z,12.98
2018-11-27T15:21:58.395Z,13.58
2018-11-27T15:24:28.615Z,13.27
2018-11-27T15:26:57.538Z,12.18
2018-11-27T15:29:26.701Z,13.80
2018-11-27T15:31:55.677Z,11.48
2018-11-27T15:34:24.794Z,12.00
2018-11-27T15:36:54.385Z,12.63
2018-11-27T15:39:23.378Z,12.10
2018-11-27T15:41:53.467Z,12.20
2018-11-27T15:44:22.314Z,10.60
2018-11-27T15:46:52.034Z,11.25
2018-11-27T15:49:22.638Z,12.35
2018-11-27T15:51:52.522Z,13.50
2018-11-27T15:54:21.530Z,13.75
2018-11-27T15:56:50.420Z,11.33
2018-11-27T15:59:20.848Z,11.40
2018-11-27T16:01:50.179Z,10.32
2018-11-27T16:04:19.066Z,12.47
2018-11-27T16:06:49.014Z,11.80
2018-11-27T16:09:17.947Z,11.60
2018-11-27T16:11:48.006Z,11.90
2018-11-27T16:14:17.758Z,12.37
2018-11-27T16:16:47.049Z,11.20
2018-11-27T16:19:16.062Z,11.95
2018-11-27T16:21:45.067Z,13.10
2018-11-27T16:24:13.960Z,12.80
2018-11-27T16:26:42.733Z,11.27
2018-11-27T16:29:11.851Z,11.75
2018-11-27T16:31:40.630Z,12.03
2018-11-27T16:34:09.547Z,12.00
2018-11-27T16:36:38.529Z,11.80
2018-11-27T16:39:11.278Z,11.22
2018-11-27T16:41:39.477Z,11.00
2018-11-27T16:44:07.511Z,11.10
2018-11-27T16:46:35.558Z,9.68
2018-11-27T16:49:03.604Z,8.60
2018-11-27T16:51:31.628Z,8.40
2018-11-27T16:53:59.686Z,9.10
2018-11-27T16:56:27.715Z,8.63
2018-11-27T16:58:55.772Z,9.05
2018-11-27T17:01:23.783Z,8.55
2018-11-27T17:03:51.822Z,7.67
2018-11-27T17:06:19.882Z,8.70
2018-11-27T17:08:47.908Z,9.38
2018-11-27T17:11:15.997Z,9.50
2018-11-27T17:13:44.023Z,10.32
2018-11-27T17:16:12.063Z,12.18
2018-11-27T17:18:40.172Z,11.50
2018-11-27T17:21:08.218Z,12.07
2018-11-27T17:23:36.273Z,35.38
2018-11-27T17:26:04.293Z,11.73
2018-11-27T17:28:32.796Z,13.70
2018-11-27T17:31:07.684Z,11.63
2018-11-27T17:33:42.923Z,11.70
2018-11-27T17:36:10.995Z,12.40
2018-11-27T17:38:39.026Z,11.70
2018-11-27T17:41:07.867Z,11.95
2018-11-27T17:43:35.894Z,12.45
2018-11-27T17:46:04.106Z,11.50
2018-11-27T17:48:32.175Z,12.30
2018-11-27T17:51:00.219Z,12.75
2018-11-27T17:53:28.325Z,11.50
2018-11-27T17:55:56.358Z,11.65
2018-11-27T17:58:24.383Z,12.82
2018-11-27T18:00:52.468Z,11.97
2018-11-27T18:03:20.499Z,12.35
2018-11-27T18:05:48.576Z,12.25
2018-11-27T18:08:16.612Z,14.03
2018-11-27T18:10:44.662Z,13.25
2018-11-27T18:13:14.858Z,14.00
2018-11-27T18:15:41.602Z,13.95
2018-11-27T18:18:09.654Z,14.70
2018-11-27T18:20:37.695Z,13.10
2018-11-27T18:23:06.019Z,14.73
2018-11-27T18:25:35.137Z,15.32
2018-11-27T18:28:03.164Z,16.70
2018-11-27T18:30:31.215Z,16.65
2018-11-27T18:32:59.241Z,17.40
2018-11-27T18:35:27.299Z,15.95
2018-11-27T18:37:55.331Z,15.50
2018-11-27T18:40:23.369Z,15.83
2018-11-27T18:42:52.398Z,17.10
2018-11-27T18:45:22.622Z,16.40
2018-11-27T18:47:50.655Z,15.50
2018-11-27T18:50:18.851Z,16.52
2018-11-27T18:52:46.890Z,19.80
2018-11-27T18:55:15.591Z,20.00
2018-11-27T18:57:44.595Z,21.70
2018-11-27T19:00:15.745Z,22.20
2018-11-27T19:02:43.786Z,23.30
2018-11-27T19:05:11.803Z,22.77
2018-11-27T19:07:39.853Z,22.87
2018-11-27T19:10:11.646Z,22.60
2018-11-27T19:12:39.707Z,22.15
2018-11-27T19:15:11.828Z,23.35
2018-11-27T19:17:39.926Z,22.10
2018-11-27T19:20:10.664Z,20.20
2018-11-27T19:22:38.704Z,20.15
2018-11-27T19:25:10.587Z,19.32
2018-11-27T19:27:38.769Z,18.07
2018-11-27T19:30:16.005Z,18.30
2018-11-27T19:32:40.014Z,16.52
2018-11-27T19:35:10.467Z,18.40
2018-11-27T19:37:38.525Z,18.17
2018-11-27T19:40:11.412Z,17.80
2018-11-27T19:42:39.455Z,16.45
2018-11-27T19:45:09.886Z,17.17
2018-11-27T19:47:38.650Z,16.73
2018-11-27T19:50:10.070Z,17.37
2018-11-27T19:52:39.170Z,18.42
2018-11-27T19:55:09.149Z,17.98
2018-11-27T19:57:37.207Z,21.70
2018-11-27T20:00:13.483Z,18.07
2018-11-27T20:02:41.531Z,17.30
2018-11-27T20:05:10.747Z,16.20
2018-11-27T20:07:38.770Z,18.73
2018-11-27T20:10:08.754Z,16.93
2018-11-27T20:12:36.774Z,17.45
2018-11-27T20:15:07.335Z,17.07
2018-11-27T20:17:35.371Z,16.40
2018-11-27T20:20:03.439Z,16.10
2018-11-27T20:22:31.516Z,16.42
2018-11-27T20:24:59.580Z,17.42
2018-11-27T20:27:27.616Z,15.90
2018-11-27T20:29:55.670Z,16.60
2018-11-27T20:32:23.728Z,17.50
2018-11-27T20:34:51.783Z,17.23
2018-11-27T20:37:19.820Z,15.40
2018-11-27T20:39:47.888Z,15.63
2018-11-27T20:42:15.946Z,17.10
2018-11-27T20:44:43.974Z,16.25
2018-11-27T20:47:12.033Z,16.07
2018-11-27T20:49:40.096Z,15.98
2018-11-27T20:52:08.150Z,15.88
2018-11-27T20:54:36.197Z,15.27
2018-11-27T20:57:04.235Z,15.20
2018-11-27T20:59:32.333Z,13.98
2018-11-27T21:02:00.354Z,14.20
2018-11-27T21:04:28.419Z,12.95
2018-11-27T21:06:56.451Z,13.83
2018-11-27T21:09:24.488Z,12.73
2018-11-27T21:11:52.544Z,11.80
2018-11-27T21:14:20.586Z,12.50
2018-11-27T21:16:48.643Z,12.50
2018-11-27T21:19:16.673Z,13.38
2018-11-27T21:21:44.734Z,12.60
2018-11-27T21:24:12.782Z,11.90
2018-11-27T21:26:40.815Z,11.90
2018-11-27T21:29:08.837Z,11.83
2018-11-27T21:31:37.994Z,11.80
2018-11-27T21:34:04.936Z,11.78
2018-11-27T21:36:32.971Z,12.00
2018-11-27T21:39:01.014Z,11.05
2018-11-27T21:41:29.067Z,11.00
2018-11-27T21:43:57.127Z,11.22
2018-11-27T21:46:25.198Z,11.12
2018-11-27T21:48:53.233Z,10.90
2018-11-27T21:51:21.329Z,10.40
2018-11-27T21:53:49.343Z,11.03
2018-11-27T21:56:17.394Z,10.97
2018-11-27T21:58:45.435Z,10.40
2018-11-27T22:01:13.478Z,10.50
2018-11-27T22:03:41.532Z,10.78
2018-11-27T22:06:09.575Z,10.60
2018-11-27T22:08:40.669Z,11.50
2018-11-27T22:11:08.733Z,11.70
2018-11-27T22:13:36.762Z,11.20
2018-11-27T22:16:05.160Z,10.55
2018-11-27T22:18:33.213Z,10.70
2018-11-27T22:21:01.260Z,10.40
2018-11-27T22:23:29.287Z,10.25
2018-11-27T22:25:57.334Z,11.45
2018-11-27T22:28:25.410Z,11.75
2018-11-27T22:30:53.450Z,10.90
2018-11-27T22:33:21.491Z,11.90
2018-11-27T22:35:49.530Z,12.25
2018-11-27T22:38:17.585Z,12.80
2018-11-27T22:40:45.635Z,11.97
2018-11-27T22:43:13.689Z,12.07
2018-11-27T22:45:41.746Z,12.87
2018-11-27T22:48:11.006Z,12.28
2018-11-27T22:50:39.083Z,10.82
2018-11-27T22:53:08.061Z,13.67
2018-11-27T22:55:36.111Z,11.75
2018-11-27T22:58:04.827Z,13.53
2018-11-27T23:00:38.399Z,12.60
2018-11-27T23:03:06.442Z,11.97
2018-11-27T23:05:34.466Z,12.15
2018-11-27T23:08:02.506Z,12.82
2018-11-27T23:10:33.246Z,13.58
2018-11-27T23:13:01.275Z,13.18
2018-11-27T23:15:29.313Z,13.90
2018-11-27T23:17:57.351Z,13.30
2018-11-27T23:20:25.430Z,13.35
2018-11-27T23:22:53.450Z,14.47
2018-11-27T23:25:21.490Z,14.10
2018-11-27T23:27:49.663Z,14.83
2018-11-27T23:30:19.026Z,14.50
2018-11-27T23:32:47.087Z,14.80
2018-11-27T23:35:15.148Z,15.20
2018-11-27T23:37:43.184Z,15.35
2018-11-27T23:40:12.178Z,14.47
2018-11-27T23:42:40.507Z,15.35
2018-11-27T23:45:13.522Z,15.60
2018-11-27T23:47:41.555Z,15.70
2018-11-27T23:50:10.689Z,15.28
2018-11-27T23:52:38.722Z,16.12
2018-11-27T23:55:08.957Z,15.90
2018-11-27T23:57:37.187Z,15.60
